Time;durP1;ratioP1;P1;durP2;ratioP2;P2;SDS_P1;SDS_P2;PMS_P1;PMS_P2;Temp;Humidity;BMP_temperature;BMP_pressure;BME280_temperature;BME280_humidity;BME280_pressure;Samples;Min_cycle;Max_cycle;Signal;HPM_P1;HPM_P2
2024/04/01 00:02:12;;;;;;;0.73;0.73;;;6.20;99.90;;;;;;6275883;22;20176;-77
2024/04/01 00:04:37;;;;;;;0.70;0.70;;;6.20;99.90;;;;;;6274167;22;20229;-78
2024/04/01 00:07:03;;;;;;;0.80;0.80;;;6.20;99.90;;;;;;6276017;22;20176;-78
2024/04/01 00:09:29;;;;;;;0.70;0.70;;;6.10;99.90;;;;;;6275702;22;20175;-78
2024/04/01 00:11:55;;;;;;;0.70;0.70;;;6.10;99.90;;;;;;6275857;22;20261;-78
2024/04/01 00:14:20;;;;;;;0.60;0.60;;;6.10;99.90;;;;;;6275645;22;20172;-77
2024/04/01 00:16:46;;;;;;;0.60;0.60;;;6.10;99.90;;;;;;6274278;22;20188;-77
2024/04/01 00:19:11;;;;;;;0.80;0.80;;;6.00;99.90;;;;;;6275945;22;20226;-77
2024/04/01 00:21:37;;;;;;;0.70;0.70;;;6.00;99.90;;;;;;6275581;22;20172;-77
2024/04/01 00:24:03;;;;;;;0.70;0.70;;;6.00;99.90;;;;;;6275823;22;20172;-77
2024/04/01 00:26:29;;;;;;;0.80;0.80;;;5.90;99.90;;;;;;6274116;22;20255;-77
2024/04/01 00:28:54;;;;;;;0.70;0.70;;;5.90;99.90;;;;;;6274186;22;20203;-77
2024/04/01 00:31:22;;;;;;;0.60;0.60;;;6.00;99.90;;;;;;6275556;22;20536;-77
2024/04/01 00:33:48;;;;;;;0.63;0.63;;;5.90;99.90;;;;;;6275908;22;20172;-77
2024/04/01 00:36:13;;;;;;;0.80;0.80;;;5.90;99.90;;;;;;6275740;22;20602;-78
2024/04/01 00:38:39;;;;;;;0.60;0.60;;;5.80;99.90;;;;;;6275726;22;20175;-77
2024/04/01 00:41:04;;;;;;;0.60;0.60;;;5.80;99.90;;;;;;6277203;22;20247;-77
2024/04/01 00:43:30;;;;;;;0.70;0.70;;;5.80;99.90;;;;;;6277599;22;20164;-78
2024/04/01 00:45:56;;;;;;;0.70;0.70;;;5.70;99.90;;;;;;6277878;22;20164;-78
2024/04/01 00:48:22;;;;;;;1.23;1.13;;;5.70;99.90;;;;;;6277598;22;20183;-77
2024/04/01 00:50:50;;;;;;;0.60;0.60;;;5.70;99.90;;;;;;6277841;22;20199;-78
2024/04/01 00:53:17;;;;;;;0.80;0.80;;;5.60;99.90;;;;;;6277880;22;20179;-77
2024/04/01 00:55:44;;;;;;;0.68;0.68;;;5.50;99.90;;;;;;6277555;22;20169;-77
2024/04/01 00:58:14;;;;;;;0.70;0.70;;;5.50;99.90;;;;;;6277961;22;20184;-77
2024/04/01 01:00:41;;;;;;;2.90;2.65;;;5.40;99.90;;;;;;6277807;22;20505;-77
2024/04/01 01:03:08;;;;;;;0.80;0.80;;;5.40;99.90;;;;;;6277589;22;20176;-76
2024/04/01 01:05:35;;;;;;;0.70;0.70;;;5.40;99.90;;;;;;6277527;22;20221;-76
2024/04/01 01:08:01;;;;;;;0.70;0.70;;;5.40;99.90;;;;;;6277572;22;20172;-77
2024/04/01 01:10:27;;;;;;;0.70;0.70;;;5.40;99.90;;;;;;6277994;22;20178;-78
2024/04/01 01:12:52;;;;;;;0.70;0.70;;;5.40;99.90;;;;;;6278036;22;20198;-77
2024/04/01 01:15:18;;;;;;;0.50;0.50;;;5.30;99.90;;;;;;6276842;22;20176;-78
2024/04/01 01:17:45;;;;;;;1.00;1.00;;;5.30;99.90;;;;;;6276873;22;20192;-78
2024/04/01 01:20:14;;;;;;;0.73;0.73;;;5.20;99.90;;;;;;6278406;22;20594;-78
2024/04/01 01:22:41;;;;;;;0.70;0.70;;;5.20;99.90;;;;;;6277190;22;20273;-77
2024/04/01 01:25:08;;;;;;;2.15;1.27;;;5.20;99.90;;;;;;6277210;22;20247;-77
2024/04/01 01:27:39;;;;;;;0.82;0.82;;;5.20;99.90;;;;;;6277214;22;20662;-77
2024/04/01 01:30:15;;;;;;;0.63;0.63;;;5.20;99.90;;;;;;6277325;22;20199;-76
2024/04/01 01:32:47;;;;;;;0.77;0.77;;;5.20;99.90;;;;;;6277172;22;20194;-77
2024/04/01 01:35:26;;;;;;;0.82;0.82;;;5.20;99.90;;;;;;6277309;22;20270;-77
2024/04/01 01:37:53;;;;;;;0.80;0.80;;;5.20;99.90;;;;;;6277179;22;20187;-77
2024/04/01 01:40:19;;;;;;;0.70;0.70;;;5.10;99.90;;;;;;6277224;22;20167;-77
2024/04/01 01:42:46;;;;;;;0.70;0.70;;;5.10;99.90;;;;;;6277267;22;20251;-78
2024/04/01 01:45:11;;;;;;;0.60;0.60;;;5.10;99.90;;;;;;6277275;22;20624;-78
2024/04/01 01:47:38;;;;;;;0.65;0.65;;;5.10;99.90;;;;;;6277100;22;20673;-78
2024/04/01 01:50:05;;;;;;;0.50;0.50;;;5.10;99.90;;;;;;6277182;22;20486;-78
2024/04/01 01:52:32;;;;;;;0.90;0.90;;;5.00;99.90;;;;;;6276731;22;20509;-77
2024/04/01 01:54:58;;;;;;;1.00;1.00;;;5.00;99.90;;;;;;6277115;22;20513;-77
2024/04/01 01:57:24;;;;;;;0.80;0.80;;;4.90;99.90;;;;;;6276864;22;20272;-77
2024/04/01 01:59:50;;;;;;;0.70;0.70;;;4.90;99.90;;;;;;6277177;22;20202;-78
2024/04/01 02:02:17;;;;;;;0.70;0.70;;;4.80;99.90;;;;;;6277218;22;20169;-78
2024/04/01 02:04:43;;;;;;;1.20;1.00;;;4.80;99.90;;;;;;6276809;22;20175;-78
2024/04/01 02:07:09;;;;;;;0.93;0.93;;;4.80;99.90;;;;;;6277226;22;20674;-77
2024/04/01 02:09:35;;;;;;;0.70;0.70;;;4.70;99.90;;;;;;6275452;22;20211;-74
2024/04/01 02:12:07;;;;;;;0.68;0.68;;;4.60;99.90;;;;;;6275500;22;20334;-75
2024/04/01 02:14:33;;;;;;;0.68;0.68;;;4.50;99.90;;;;;;6276723;22;20176;-75
2024/04/01 02:16:59;;;;;;;0.65;0.65;;;4.50;99.90;;;;;;6276914;22;20188;-75
2024/04/01 02:19:25;;;;;;;0.60;0.60;;;4.40;99.90;;;;;;6276804;22;20195;-76
2024/04/01 02:21:50;;;;;;;0.60;0.60;;;4.40;99.90;;;;;;6277515;22;20545;-76
2024/04/01 02:24:17;;;;;;;0.60;0.60;;;4.30;99.90;;;;;;6277020;22;20497;-75
2024/04/01 02:27:04;;;;;;;1.00;0.95;;;4.40;99.90;;;;;;6276766;22;20198;-75
2024/04/01 02:29:29;;;;;;;0.60;0.60;;;4.20;99.90;;;;;;6276777;22;20164;-75
2024/04/01 02:31:55;;;;;;;0.60;0.60;;;4.20;99.90;;;;;;6276473;22;20196;-75
2024/04/01 02:34:21;;;;;;;1.55;1.10;;;4.10;99.90;;;;;;6276660;22;20605;-76
2024/04/01 02:36:46;;;;;;;0.70;0.70;;;4.00;99.90;;;;;;6276804;22;20176;-76
2024/04/01 02:39:16;;;;;;;0.65;0.65;;;4.00;99.90;;;;;;6276890;22;20173;-75
2024/04/01 02:41:44;;;;;;;0.60;0.60;;;4.00;99.90;;;;;;6276654;22;20168;-76
2024/04/01 02:44:09;;;;;;;0.60;0.60;;;4.00;99.90;;;;;;6276723;22;20485;-75
2024/04/01 02:46:35;;;;;;;0.70;0.70;;;4.00;99.90;;;;;;6276508;22;20175;-75
2024/04/01 02:49:00;;;;;;;0.60;0.60;;;4.00;99.90;;;;;;6276730;22;20168;-74
2024/04/01 02:51:26;;;;;;;0.80;0.80;;;4.00;99.90;;;;;;6274819;22;20187;-75
2024/04/01 02:53:52;;;;;;;0.70;0.70;;;3.90;99.90;;;;;;6276560;22;20207;-75
2024/04/01 02:56:17;;;;;;;0.70;0.70;;;3.80;99.90;;;;;;6276628;22;20168;-75
2024/04/01 02:58:43;;;;;;;0.60;0.60;;;3.70;99.90;;;;;;6276895;22;20168;-74
2024/04/01 03:01:10;;;;;;;0.73;0.73;;;3.60;99.90;;;;;;6276205;22;20191;-74
2024/04/01 03:03:36;;;;;;;0.70;0.70;;;3.60;99.90;;;;;;6277152;22;20160;-75
2024/04/01 03:06:02;;;;;;;0.70;0.70;;;3.50;99.90;;;;;;6275211;22;20322;-74
2024/04/01 03:08:31;;;;;;;0.80;0.80;;;3.40;99.90;;;;;;6276246;22;20243;-74
2024/04/01 03:11:01;;;;;;;0.70;0.70;;;3.30;99.90;;;;;;6276450;22;20169;-75
2024/04/01 03:13:28;;;;;;;0.93;0.93;;;3.10;99.90;;;;;;6276265;22;20278;-75
2024/04/01 03:15:54;;;;;;;0.70;0.70;;;3.10;99.90;;;;;;6274760;22;20182;-74
2024/04/01 03:18:20;;;;;;;0.90;0.90;;;3.10;99.90;;;;;;6274465;22;20233;-76
2024/04/01 03:20:47;;;;;;;0.80;0.80;;;3.00;99.90;;;;;;6274982;22;20176;-78
2024/04/01 03:23:14;;;;;;;0.73;0.73;;;3.00;99.90;;;;;;6274621;22;20240;-78
2024/04/01 03:25:40;;;;;;;0.80;0.80;;;2.90;99.90;;;;;;6276172;22;20301;-79
2024/04/01 03:28:06;;;;;;;0.70;0.70;;;2.90;99.90;;;;;;6276207;22;20221;-79
2024/04/01 03:30:32;;;;;;;1.30;1.10;;;3.00;99.90;;;;;;6275920;22;20222;-79
2024/04/01 03:32:58;;;;;;;0.80;0.80;;;3.10;99.90;;;;;;6276185;22;20219;-78
2024/04/01 03:35:24;;;;;;;0.80;0.80;;;3.20;99.90;;;;;;6276058;22;20172;-78
2024/04/01 03:37:49;;;;;;;0.73;0.73;;;3.10;99.90;;;;;;6276126;22;20188;-78
2024/04/01 03:40:15;;;;;;;0.70;0.70;;;3.10;99.90;;;;;;6276292;22;20163;-79
2024/04/01 03:42:41;;;;;;;2.47;1.98;;;3.00;99.90;;;;;;6274267;22;20197;-79
2024/04/01 03:45:06;;;;;;;0.60;0.60;;;3.00;99.90;;;;;;6276299;22;20190;-79
2024/04/01 03:47:36;;;;;;;0.70;0.70;;;2.80;99.90;;;;;;6274276;22;20176;-78
2024/04/01 03:50:02;;;;;;;0.73;0.73;;;2.70;99.90;;;;;;6276186;22;20611;-79
2024/04/01 03:52:28;;;;;;;0.70;0.70;;;2.60;99.90;;;;;;6275899;22;20512;-78
2024/04/01 03:54:54;;;;;;;0.70;0.70;;;2.50;99.90;;;;;;6276103;22;20168;-78
2024/04/01 03:57:19;;;;;;;0.70;0.70;;;2.40;99.90;;;;;;6276153;22;20515;-77
2024/04/01 03:59:45;;;;;;;0.80;0.80;;;2.30;99.90;;;;;;6274761;22;20176;-80
2024/04/01 04:02:10;;;;;;;0.60;0.60;;;2.30;99.90;;;;;;6276226;22;20168;-79
2024/04/01 04:04:36;;;;;;;0.63;0.63;;;2.30;99.90;;;;;;6276369;22;20507;-79
2024/04/01 04:07:02;;;;;;;0.70;0.70;;;2.30;99.90;;;;;;6277116;22;20180;-79
2024/04/01 04:09:28;;;;;;;0.50;0.50;;;2.30;99.90;;;;;;6274654;22;20180;-79
2024/04/01 04:11:54;;;;;;;0.60;0.60;;;2.30;99.90;;;;;;6276815;22;20247;-78
2024/04/01 04:14:25;;;;;;;0.80;0.80;;;2.20;99.90;;;;;;6284866;22;20188;-78
2024/04/01 04:16:51;;;;;;;5.45;0.85;;;2.20;99.90;;;;;;6282508;22;20211;-77
2024/04/01 04:19:19;;;;;;;0.65;0.65;;;2.10;99.90;;;;;;6277142;22;20671;-77
2024/04/01 04:21:45;;;;;;;0.80;0.80;;;2.10;99.90;;;;;;6279041;22;20613;-77
2024/04/01 04:24:13;;;;;;;0.70;0.70;;;2.10;99.90;;;;;;6278509;22;20577;-77
2024/04/01 04:26:39;;;;;;;0.55;0.55;;;2.00;99.90;;;;;;6279651;22;20180;-77
2024/04/01 04:29:05;;;;;;;1.00;0.95;;;2.00;99.90;;;;;;6276748;22;20168;-76
2024/04/01 04:31:31;;;;;;;0.70;0.70;;;1.90;99.90;;;;;;6279154;22;20200;-77
2024/04/01 04:33:58;;;;;;;0.60;0.60;;;1.90;99.90;;;;;;6278259;22;20168;-77
2024/04/01 04:36:23;;;;;;;0.65;0.65;;;1.90;99.90;;;;;;6281707;22;20247;-77
2024/04/01 04:38:49;;;;;;;0.60;0.60;;;1.90;99.90;;;;;;6282643;22;20168;-76
2024/04/01 04:41:18;;;;;;;0.60;0.60;;;1.80;99.90;;;;;;6276700;22;20172;-77
2024/04/01 04:43:44;;;;;;;0.60;0.60;;;1.80;99.90;;;;;;6275843;22;20190;-77
2024/04/01 04:46:11;;;;;;;0.80;0.80;;;1.80;99.90;;;;;;6274067;22;20602;-77
2024/04/01 04:48:39;;;;;;;2.67;1.02;;;1.70;99.90;;;;;;6273923;22;20709;-77
2024/04/01 04:51:05;;;;;;;0.63;0.63;;;1.60;99.90;;;;;;6275660;22;20172;-78
2024/04/01 04:53:31;;;;;;;0.90;0.90;;;1.50;99.90;;;;;;6275457;22;20183;-78
2024/04/01 04:55:56;;;;;;;0.80;0.80;;;1.50;99.90;;;;;;6275918;22;20176;-77
2024/04/01 04:58:22;;;;;;;0.80;0.80;;;1.50;99.90;;;;;;6275416;22;20217;-78
2024/04/01 05:00:49;;;;;;;0.77;0.77;;;1.50;99.90;;;;;;6275678;22;20249;-78
2024/04/01 05:03:14;;;;;;;0.70;0.70;;;1.50;99.90;;;;;;6273991;22;20557;-77
2024/04/01 05:05:40;;;;;;;0.60;0.60;;;1.50;99.90;;;;;;6275397;22;20168;-77
2024/04/01 05:08:06;;;;;;;0.60;0.60;;;1.60;99.90;;;;;;6275542;22;20180;-78
2024/04/01 05:10:33;;;;;;;0.70;0.70;;;1.80;99.90;;;;;;6273702;22;20622;-78
2024/04/01 05:12:59;;;;;;;0.70;0.70;;;2.00;99.90;;;;;;6275582;22;20684;-78
2024/04/01 05:15:25;;;;;;;0.70;0.70;;;2.20;99.90;;;;;;6275291;22;20168;-78
2024/04/01 05:17:51;;;;;;;0.70;0.70;;;2.50;99.90;;;;;;6275421;22;20184;-79
2024/04/01 05:20:17;;;;;;;0.65;0.65;;;2.70;99.90;;;;;;6273961;22;20172;-78
2024/04/01 05:22:42;;;;;;;0.68;0.68;;;2.90;99.90;;;;;;6275170;22;20552;-78
2024/04/01 05:25:08;;;;;;;0.60;0.60;;;3.10;99.90;;;;;;6274211;22;20176;-78
2024/04/01 05:27:34;;;;;;;0.60;0.60;;;3.20;99.90;;;;;;6276612;22;20629;-78
2024/04/01 05:30:04;;;;;;;0.80;0.80;;;3.30;99.90;;;;;;6277441;22;20168;-78
2024/04/01 05:32:31;;;;;;;0.60;0.60;;;3.40;99.90;;;;;;6275418;22;20204;-78
2024/04/01 05:34:57;;;;;;;0.60;0.60;;;3.50;99.90;;;;;;6277340;22;20611;-78
2024/04/01 05:37:23;;;;;;;0.60;0.60;;;3.60;99.90;;;;;;6277041;22;20195;-78
2024/04/01 05:39:52;;;;;;;0.68;0.68;;;3.70;99.90;;;;;;6277560;22;20171;-78
2024/04/01 05:42:19;;;;;;;0.70;0.70;;;3.70;99.90;;;;;;6275638;22;20172;-78
2024/04/01 05:44:45;;;;;;;0.60;0.60;;;3.80;99.90;;;;;;6277197;22;20511;-79
2024/04/01 05:47:11;;;;;;;0.70;0.70;;;3.80;99.90;;;;;;6277314;22;20173;-79
2024/04/01 05:49:36;;;;;;;0.70;0.70;;;3.80;99.90;;;;;;6276923;22;20168;-79
2024/04/01 05:52:03;;;;;;;0.68;0.68;;;3.90;99.90;;;;;;6277216;22;20172;-79
2024/04/01 05:54:29;;;;;;;0.60;0.60;;;3.90;99.90;;;;;;6276941;22;20624;-79
2024/04/01 05:56:55;;;;;;;0.70;0.70;;;4.00;99.90;;;;;;6276807;22;20621;-79
2024/04/01 05:59:21;;;;;;;0.63;0.63;;;4.00;99.90;;;;;;6277031;22;20664;-79
2024/04/01 06:01:47;;;;;;;0.60;0.60;;;4.10;99.90;;;;;;6277017;22;20172;-79
2024/04/01 06:04:13;;;;;;;0.55;0.55;;;4.10;99.90;;;;;;6276991;22;20597;-79
2024/04/01 06:06:39;;;;;;;0.57;0.57;;;4.20;99.90;;;;;;6275314;22;20187;-79
2024/04/01 06:09:06;;;;;;;0.63;0.63;;;4.30;99.90;;;;;;6277073;22;20176;-79
2024/04/01 06:11:31;;;;;;;0.50;0.50;;;4.30;99.90;;;;;;6276858;22;20606;-79
2024/04/01 06:13:57;;;;;;;0.60;0.60;;;4.40;99.90;;;;;;6275458;22;20260;-80
2024/04/01 06:16:22;;;;;;;0.70;0.70;;;4.50;99.90;;;;;;6275115;22;20322;-79
2024/04/01 06:18:49;;;;;;;0.70;0.70;;;4.50;99.90;;;;;;6276558;22;20164;-79
2024/04/01 06:21:15;;;;;;;0.65;0.65;;;4.50;99.90;;;;;;6277156;22;20173;-80
2024/04/01 06:23:41;;;;;;;0.60;0.60;;;4.60;99.90;;;;;;6276583;22;20560;-79
2024/04/01 06:26:06;;;;;;;0.68;0.68;;;4.70;99.90;;;;;;6276832;22;20554;-80
2024/04/01 06:28:32;;;;;;;0.70;0.70;;;4.80;99.90;;;;;;6276513;22;20172;-80
2024/04/01 06:30:58;;;;;;;0.60;0.60;;;4.80;99.90;;;;;;6276648;22;20226;-79
2024/04/01 06:33:24;;;;;;;0.60;0.60;;;4.90;99.90;;;;;;6276412;22;20637;-81
2024/04/01 06:36:00;;;;;;;0.70;0.70;;;5.10;99.90;;;;;;6276875;22;20176;-80
2024/04/01 06:38:25;;;;;;;0.63;0.63;;;5.20;99.90;;;;;;6274739;22;20241;-80
2024/04/01 06:40:51;;;;;;;0.57;0.57;;;5.30;99.90;;;;;;6276749;22;20253;-80
2024/04/01 06:43:17;;;;;;;0.60;0.60;;;5.40;99.90;;;;;;6275051;22;20611;-80
2024/04/01 06:45:54;;;;;;;0.60;0.60;;;5.50;99.90;;;;;;6276541;22;20169;-79
2024/04/01 06:48:21;;;;;;;0.60;0.60;;;5.70;99.90;;;;;;6274900;22;20518;-79
2024/04/01 06:50:47;;;;;;;0.50;0.50;;;5.80;99.90;;;;;;6276857;22;20164;-79
2024/04/01 06:53:12;;;;;;;0.70;0.70;;;5.90;99.90;;;;;;6276640;22;20222;-79
2024/04/01 06:55:38;;;;;;;0.77;0.77;;;6.00;99.90;;;;;;6276565;22;20210;-79
2024/04/01 06:58:06;;;;;;;0.70;0.70;;;6.10;99.90;;;;;;6275072;22;20188;-78
2024/04/01 07:00:32;;;;;;;0.50;0.50;;;6.20;99.90;;;;;;6276550;22;20226;-78
2024/04/01 07:02:58;;;;;;;0.70;0.70;;;6.20;99.90;;;;;;6274750;22;20175;-77
2024/04/01 07:05:23;;;;;;;0.60;0.60;;;6.30;99.90;;;;;;6276369;22;20168;-77
2024/04/01 07:07:49;;;;;;;0.68;0.68;;;6.50;99.90;;;;;;6276612;22;20169;-76
2024/04/01 07:10:15;;;;;;;0.60;0.60;;;6.60;99.90;;;;;;6276332;22;20565;-77
2024/04/01 07:12:41;;;;;;;0.60;0.60;;;6.50;99.90;;;;;;6276135;22;20615;-77
2024/04/01 07:15:08;;;;;;;0.70;0.70;;;6.60;99.90;;;;;;6274472;22;20701;-80
2024/04/01 07:17:37;;;;;;;0.60;0.60;;;6.60;99.90;;;;;;6276351;22;20241;-80
2024/04/01 07:20:04;;;;;;;0.70;0.70;;;6.80;99.90;;;;;;6276642;22;20278;-79
2024/04/01 07:22:30;;;;;;;0.68;0.68;;;7.10;99.90;;;;;;6276921;22;20540;-79
2024/04/01 07:24:56;;;;;;;0.68;0.68;;;7.20;99.90;;;;;;6276966;22;20223;-78
2024/04/01 07:27:25;;;;;;;0.70;0.70;;;7.30;99.90;;;;;;6276361;22;20248;-78
2024/04/01 07:29:51;;;;;;;0.60;0.60;;;7.50;99.90;;;;;;6276443;22;20621;-79
2024/04/01 07:32:17;;;;;;;0.70;0.70;;;7.70;99.90;;;;;;6276298;22;20263;-78
2024/04/01 07:34:42;;;;;;;0.70;0.70;;;7.80;99.90;;;;;;6276574;22;20168;-79
2024/04/01 07:37:08;;;;;;;0.80;0.80;;;7.80;99.90;;;;;;6276533;22;20185;-79
2024/04/01 07:39:33;;;;;;;0.52;0.52;;;7.90;99.90;;;;;;6276467;22;20165;-80
2024/04/01 07:41:59;;;;;;;0.60;0.60;;;7.90;99.90;;;;;;6276330;22;20218;-80
2024/04/01 07:44:25;;;;;;;0.60;0.60;;;7.90;99.90;;;;;;6276331;22;20175;-78
2024/04/01 07:46:51;;;;;;;0.70;0.70;;;8.10;99.90;;;;;;6276422;22;20239;-80
2024/04/01 07:49:16;;;;;;;0.70;0.70;;;8.20;99.90;;;;;;6276384;22;20168;-78
2024/04/01 07:51:42;;;;;;;0.70;0.70;;;8.30;99.90;;;;;;6276603;22;20175;-80
2024/04/01 07:54:07;;;;;;;0.60;0.60;;;8.30;99.90;;;;;;6276458;22;20184;-79
2024/04/01 07:56:33;;;;;;;0.60;0.60;;;8.30;99.90;;;;;;6277743;22;20514;-77
2024/04/01 07:58:59;;;;;;;0.60;0.60;;;8.30;99.90;;;;;;6283346;22;20230;-78
2024/04/01 08:01:24;;;;;;;0.70;0.70;;;8.20;99.90;;;;;;6289181;22;20527;-78
2024/04/01 08:03:50;;;;;;;0.80;0.80;;;8.30;99.90;;;;;;6288813;22;20171;-79
2024/04/01 08:06:16;;;;;;;0.70;0.70;;;8.20;99.90;;;;;;6281798;22;20172;-77
2024/04/01 08:08:42;;;;;;;0.70;0.70;;;8.30;99.90;;;;;;6289158;22;20199;-76
2024/04/01 08:11:08;;;;;;;0.60;0.60;;;8.40;99.90;;;;;;6302505;22;20263;-78
2024/04/01 08:13:33;;;;;;;0.70;0.70;;;8.80;99.90;;;;;;6300134;22;20149;-78
2024/04/01 08:16:01;;;;;;;0.75;0.75;;;9.00;99.90;;;;;;6294633;22;20208;-81
2024/04/01 08:18:27;;;;;;;0.60;0.60;;;9.20;99.90;;;;;;6276324;22;20184;-80
2024/04/01 08:20:52;;;;;;;0.60;0.60;;;9.30;99.90;;;;;;6276385;22;20173;-80
2024/04/01 08:23:19;;;;;;;0.70;0.70;;;9.50;99.90;;;;;;6276548;22;20180;-80
2024/04/01 08:25:44;;;;;;;0.70;0.70;;;9.70;99.90;;;;;;6276655;22;20199;-80
2024/04/01 08:28:10;;;;;;;0.70;0.70;;;9.70;99.90;;;;;;6276345;22;20507;-80
2024/04/01 08:30:35;;;;;;;0.70;0.70;;;9.70;99.90;;;;;;6275865;22;20641;-80
2024/04/01 08:33:01;;;;;;;0.60;0.60;;;9.80;99.90;;;;;;6276241;22;20194;-79
2024/04/01 08:35:27;;;;;;;0.70;0.70;;;9.70;99.90;;;;;;6276068;22;20168;-80
2024/04/01 08:37:52;;;;;;;0.60;0.60;;;9.70;99.90;;;;;;6276061;22;20192;-80
2024/04/01 08:40:19;;;;;;;0.70;0.70;;;9.80;99.90;;;;;;6275944;22;20191;-78
2024/04/01 08:42:48;;;;;;;0.70;0.70;;;10.00;99.90;;;;;;6274264;22;20176;-79
2024/04/01 08:45:14;;;;;;;0.60;0.60;;;9.90;99.90;;;;;;6275811;22;20174;-79
2024/04/01 08:47:43;;;;;;;0.60;0.60;;;10.10;99.90;;;;;;6274205;22;20234;-80
2024/04/01 08:50:35;;;;;;;0.60;0.60;;;10.30;99.90;;;;;;6275974;22;20168;-80
2024/04/01 08:53:11;;;;;;;0.65;0.65;;;10.30;99.90;;;;;;6275949;22;20195;-79
2024/04/01 08:55:37;;;;;;;0.70;0.70;;;10.40;99.90;;;;;;6275785;22;20554;-80
2024/04/01 08:58:03;;;;;;;0.60;0.60;;;10.40;99.90;;;;;;6274293;22;20192;-81
2024/04/01 09:00:30;;;;;;;0.52;0.52;;;10.60;99.90;;;;;;6275661;22;20220;-80
2024/04/01 09:02:55;;;;;;;0.60;0.60;;;10.80;99.90;;;;;;6277046;22;20632;-80
2024/04/01 09:05:21;;;;;;;0.60;0.60;;;11.00;99.90;;;;;;6277554;22;20172;-79
2024/04/01 09:07:48;;;;;;;0.70;0.70;;;11.20;99.90;;;;;;6276132;22;20519;-80
2024/04/01 09:10:19;;;;;;;0.60;0.60;;;11.30;99.90;;;;;;6277626;22;20241;-80
2024/04/01 09:12:45;;;;;;;0.60;0.60;;;11.20;99.90;;;;;;6277597;22;20172;-76
2024/04/01 09:15:15;;;;;;;0.60;0.60;;;11.30;99.90;;;;;;6277552;22;20173;-76
2024/04/01 09:17:41;;;;;;;0.60;0.60;;;11.60;99.90;;;;;;6275701;22;20248;-76
2024/04/01 09:20:07;;;;;;;0.60;0.60;;;11.90;99.90;;;;;;6277405;22;20168;-75
2024/04/01 09:22:33;;;;;;;0.60;0.60;;;11.80;99.90;;;;;;6277748;22;20183;-75
2024/04/01 09:24:58;;;;;;;0.60;0.60;;;12.20;99.90;;;;;;6277510;22;20194;-76
2024/04/01 09:27:25;;;;;;;0.60;0.60;;;12.40;99.90;;;;;;6277222;22;20175;-76
2024/04/01 09:29:51;;;;;;;0.60;0.60;;;12.60;99.90;;;;;;6275862;22;20559;-76
2024/04/01 09:32:18;;;;;;;0.60;0.60;;;12.70;99.90;;;;;;6277266;22;20701;-76
2024/04/01 09:34:44;;;;;;;0.50;0.50;;;12.90;99.90;;;;;;6277459;22;20533;-76
2024/04/01 09:37:09;;;;;;;0.60;0.60;;;13.10;99.90;;;;;;6277354;22;20191;-76
2024/04/01 09:39:36;;;;;;;0.50;0.50;;;12.90;99.90;;;;;;6277134;22;20168;-76
2024/04/01 09:42:03;;;;;;;0.60;0.60;;;12.60;99.90;;;;;;6275807;22;20172;-76
2024/04/01 09:44:33;;;;;;;0.60;0.60;;;12.90;99.90;;;;;;6277155;22;20168;-75
2024/04/01 09:46:59;;;;;;;0.60;0.60;;;13.10;99.90;;;;;;6277367;22;20168;-75
2024/04/01 09:49:27;;;;;;;0.50;0.50;;;13.50;99.90;;;;;;6277065;22;20168;-76
2024/04/01 09:51:54;;;;;;;0.50;0.50;;;14.00;99.90;;;;;;6277177;22;20250;-76
2024/04/01 09:54:20;;;;;;;0.60;0.60;;;14.30;99.90;;;;;;6277134;22;20251;-76
2024/04/01 09:57:07;;;;;;;0.45;0.45;;;14.20;99.90;;;;;;6277133;22;20313;-76
2024/04/01 09:59:49;;;;;;;0.60;0.60;;;14.10;99.90;;;;;;6276970;22;20175;-76
2024/04/01 10:02:26;;;;;;;0.50;0.50;;;14.00;99.90;;;;;;6276555;22;20165;-76
2024/04/01 10:05:22;;;;;;;0.40;0.40;;;14.20;99.90;;;;;;6277073;22;20243;-76
2024/04/01 10:07:51;;;;;;;0.43;0.43;;;14.40;99.90;;;;;;6277133;22;20617;-76
2024/04/01 10:10:31;;;;;;;0.50;0.50;;;14.50;99.90;;;;;;6276955;22;20179;-76
2024/04/01 10:13:13;;;;;;;0.50;0.50;;;14.60;99.90;;;;;;6276698;22;20172;-76
2024/04/01 10:16:22;;;;;;;0.50;0.50;;;14.60;99.90;;;;;;6276792;22;20920;-76
2024/04/01 10:19:00;;;;;;;0.50;0.50;;;14.40;99.90;;;;;;6265545;22;20184;-77
2024/04/01 10:21:56;;;;;;;0.50;0.50;;;14.40;99.90;;;;;;6277074;22;20176;-79
2024/04/01 10:24:28;;;;;;;0.43;0.43;;;14.30;99.90;;;;;;6276798;22;20168;-78
2024/04/01 10:27:05;;;;;;;0.50;0.50;;;14.20;99.90;;;;;;6276975;22;20176;-78
2024/04/01 10:29:53;;;;;;;0.47;0.47;;;14.30;99.90;;;;;;6276811;22;20176;-77
2024/04/01 10:32:40;;;;;;;0.50;0.50;;;14.50;99.90;;;;;;6276703;22;20188;-79
2024/04/01 10:35:24;;;;;;;0.50;0.50;;;14.70;99.90;;;;;;6276915;22;20164;-80
2024/04/01 10:38:14;;;;;;;0.60;0.60;;;14.70;99.90;;;;;;6276905;22;20188;-79
2024/04/01 10:41:07;;;;;;;0.50;0.50;;;14.90;99.90;;;;;;6276800;22;20178;-78
2024/04/01 10:43:47;;;;;;;0.40;0.40;;;14.80;99.90;;;;;;6276593;22;20203;-77
2024/04/01 10:46:42;;;;;;;0.40;0.40;;;14.80;99.90;;;;;;6276753;22;20171;-77
2024/04/01 10:49:08;;;;;;;0.40;0.40;;;14.90;99.90;;;;;;6276806;22;20200;-78
2024/04/01 10:51:48;;;;;;;0.40;0.40;;;15.10;99.90;;;;;;6274903;22;20663;-78
2024/04/01 10:54:20;;;;;;;0.45;0.45;;;15.40;99.90;;;;;;6276655;22;20507;-78
2024/04/01 10:57:06;;;;;;;0.40;0.40;;;15.90;99.90;;;;;;6276563;22;20271;-79
2024/04/01 10:59:47;;;;;;;0.40;0.40;;;16.00;99.90;;;;;;6276269;22;20199;-77
2024/04/01 11:02:38;;;;;;;0.40;0.40;;;16.10;99.90;;;;;;6274862;22;20660;-78
2024/04/01 11:05:28;;;;;;;0.40;0.40;;;15.50;99.90;;;;;;6276595;22;20223;-79
2024/04/01 11:08:08;;;;;;;0.50;0.50;;;15.30;99.90;;;;;;6276553;22;20176;-77
2024/04/01 11:10:53;;;;;;;0.40;0.40;;;15.30;99.90;;;;;;6276398;22;20242;-78
2024/04/01 11:13:22;;;;;;;0.40;0.40;;;15.40;99.90;;;;;;6276254;22;20180;-77
2024/04/01 11:15:55;;;;;;;0.40;0.40;;;15.80;99.90;;;;;;6276528;22;20215;-79
2024/04/01 11:18:30;;;;;;;0.40;0.40;;;16.10;99.90;;;;;;6276164;22;20184;-77
2024/04/01 11:21:33;;;;;;;0.40;0.40;;;16.10;99.90;;;;;;6276507;22;20199;-77
2024/04/01 11:24:24;;;;;;;0.38;0.38;;;15.80;99.90;;;;;;6276060;22;20172;-77
2024/04/01 11:27:14;;;;;;;0.47;0.47;;;15.50;99.90;;;;;;6276352;22;20194;-76
2024/04/01 11:29:43;;;;;;;0.40;0.40;;;15.50;99.90;;;;;;6276111;22;20213;-77
2024/04/01 11:32:11;;;;;;;0.40;0.40;;;15.40;99.90;;;;;;6276215;22;20199;-77
2024/04/01 11:35:07;;;;;;;0.40;0.40;;;15.40;99.90;;;;;;6276151;22;20247;-78
2024/04/01 11:37:52;;;;;;;0.40;0.40;;;15.60;99.90;;;;;;6275770;22;20200;-80
2024/04/01 11:40:24;;;;;;;0.40;0.40;;;15.80;99.90;;;;;;6248920;22;20203;-77
2024/04/01 11:42:55;;;;;;;0.40;0.40;;;16.00;99.90;;;;;;6275806;22;20596;-75
2024/04/01 11:45:25;;;;;;;0.40;0.40;;;16.40;99.90;;;;;;6248759;22;20510;-78
2024/04/01 11:47:52;;;;;;;0.30;0.30;;;16.60;99.90;;;;;;6276039;22;20172;-77
2024/04/01 11:50:19;;;;;;;0.40;0.40;;;16.50;99.90;;;;;;6275829;22;20172;-77
2024/04/01 11:53:05;;;;;;;0.40;0.40;;;16.10;99.90;;;;;;6248763;22;20633;-77
2024/04/01 11:55:32;;;;;;;0.30;0.30;;;16.00;99.90;;;;;;6275478;22;20194;-78
2024/04/01 11:58:11;;;;;;;0.40;0.40;;;15.60;99.90;;;;;;6275920;22;20180;-77
2024/04/01 12:00:48;;;;;;;0.40;0.40;;;15.60;99.90;;;;;;6275893;22;20656;-76
2024/04/01 12:03:14;;;;;;;0.40;0.40;;;15.80;99.90;;;;;;6248709;22;20202;-77
2024/04/01 12:05:47;;;;;;;0.40;0.40;;;15.70;99.90;;;;;;6275634;22;20176;-77
2024/04/01 12:08:22;;;;;;;0.40;0.40;;;15.70;99.90;;;;;;6275907;22;20183;-77
2024/04/01 12:10:48;;;;;;;0.40;0.40;;;15.80;99.90;;;;;;6275870;22;20667;-77
2024/04/01 12:13:17;;;;;;;0.30;0.30;;;15.90;99.90;;;;;;6275849;22;20176;-78
2024/04/01 12:15:44;;;;;;;0.40;0.40;;;16.20;99.90;;;;;;6275545;22;20602;-77
2024/04/01 12:18:16;;;;;;;0.30;0.30;;;16.70;99.90;;;;;;6275626;22;20259;-77
2024/04/01 12:20:43;;;;;;;0.30;0.30;;;16.70;99.90;;;;;;6275754;22;20172;-77
2024/04/01 12:23:10;;;;;;;0.45;0.45;;;16.50;99.90;;;;;;6275921;22;20179;-76
2024/04/01 12:25:36;;;;;;;0.35;0.35;;;16.20;99.90;;;;;;6276753;22;20163;-79
2024/04/01 12:28:08;;;;;;;0.40;0.40;;;15.90;99.90;;;;;;6276780;22;20195;-77
2024/04/01 12:30:36;;;;;;;0.40;0.40;;;15.70;99.90;;;;;;6275837;22;20686;-76
2024/04/01 12:33:04;;;;;;;0.38;0.38;;;15.90;99.90;;;;;;6281690;22;20673;-79
2024/04/01 12:35:31;;;;;;;0.47;0.47;;;16.10;99.90;;;;;;6277052;22;20172;-77
2024/04/01 12:38:06;;;;;;;0.30;0.30;;;16.50;99.90;;;;;;6278321;22;20232;-77
2024/04/01 12:40:44;;;;;;;0.30;0.30;;;16.60;99.90;;;;;;6278988;22;20302;-76
2024/04/01 12:43:15;;;;;;;0.43;0.40;;;16.80;99.90;;;;;;6250798;22;20557;-75
2024/04/01 12:45:42;;;;;;;0.30;0.30;;;16.70;99.90;;;;;;6277743;22;20558;-75
2024/04/01 12:48:16;;;;;;;0.32;0.32;;;16.90;99.90;;;;;;6277999;22;20612;-76
2024/04/01 12:50:44;;;;;;;0.40;0.40;;;17.00;99.90;;;;;;6277417;22;20168;-74
2024/04/01 12:53:29;;;;;;;0.30;0.30;;;17.10;99.90;;;;;;6278378;22;20666;-74
2024/04/01 12:56:04;;;;;;;0.40;0.40;;;16.90;99.90;;;;;;6278380;22;20174;-74
2024/04/01 12:58:58;;;;;;;0.40;0.40;;;16.60;99.90;;;;;;6250965;22;20626;-74
2024/04/01 13:01:32;;;;;;;0.40;0.40;;;16.20;99.90;;;;;;6277991;22;20633;-75
2024/04/01 13:04:12;;;;;;;0.40;0.40;;;16.20;99.90;;;;;;6287974;22;20164;-74